createdAt,value
2018-08-17T07:20:52.750Z,4748.00
2018-08-17T07:21:52.727Z,4784.00
2018-08-17T07:23:48.988Z,4768.00
2018-08-17T07:24:48.575Z,4844.00
2018-08-17T07:26:49.954Z,5156.00
2018-08-17T07:27:49.906Z,5216.00
2018-08-17T07:29:50.239Z,5216.00
2018-08-17T07:30:50.155Z,5112.00
2018-08-17T07:32:55.891Z,4696.00
2018-08-17T07:33:55.985Z,4568.00
2018-08-17T07:36:11.893Z,4532.00
2018-08-17T07:37:11.741Z,4572.00
2018-08-17T07:39:16.222Z,4692.00
2018-08-17T07:40:16.036Z,4764.00
2018-08-17T07:42:32.122Z,4920.00
2018-08-17T07:43:32.093Z,4964.00
2018-08-17T07:45:39.909Z,5032.00
2018-08-17T07:46:39.879Z,5100.00
2018-08-17T07:48:42.768Z,5424.00
2018-08-17T07:49:42.837Z,5560.00
2018-08-17T07:52:01.599Z,6040.00
2018-08-17T07:53:01.541Z,6372.00
2018-08-17T07:54:59.432Z,7248.00
2018-08-17T07:55:59.342Z,7696.00
2018-08-17T07:58:02.271Z,8400.00
2018-08-17T07:59:02.183Z,8612.00
2018-08-17T08:01:05.651Z,8920.00
2018-08-17T08:02:05.520Z,9128.00
2018-08-17T08:04:09.082Z,9488.00
2018-08-17T08:05:08.807Z,9560.00
2018-08-17T08:07:11.680Z,9476.00
2018-08-17T08:08:11.684Z,9464.00
2018-08-17T08:10:17.598Z,9236.00
2018-08-17T08:11:17.547Z,8824.00
2018-08-17T08:13:21.770Z,8632.00
2018-08-17T08:14:21.204Z,8780.00
2018-08-17T08:16:25.342Z,8616.00
2018-08-17T08:17:25.388Z,8556.00
2018-08-17T08:19:29.848Z,8264.00
2018-08-17T08:20:29.799Z,7800.00
2018-08-17T08:22:33.119Z,7168.00
2018-08-17T08:23:33.091Z,6848.00
2018-08-17T08:25:36.399Z,6244.00
2018-08-17T08:26:36.641Z,5872.00
2018-08-17T08:28:32.608Z,4860.00
2018-08-17T08:29:32.174Z,4300.00
2018-08-17T08:31:38.408Z,3380.00
2018-08-17T08:32:35.676Z,3108.00
2018-08-17T08:34:37.171Z,2824.00
2018-08-17T08:35:37.116Z,2788.00
2018-08-17T08:36:37.074Z,2732.00
2018-08-17T08:37:37.153Z,2612.00
2018-08-17T08:38:37.005Z,2456.00
2018-08-17T08:39:36.987Z,2416.00
2018-08-17T08:40:37.145Z,2460.00
2018-08-17T08:41:36.955Z,2500.00
2018-08-17T08:42:36.906Z,2496.00
2018-08-17T08:43:36.875Z,2476.00
2018-08-17T08:44:36.859Z,2396.00
2018-08-17T08:45:36.926Z,2328.00
2018-08-17T08:46:36.812Z,2260.00
2018-08-17T08:47:36.784Z,2176.00
2018-08-17T08:48:36.753Z,2244.00
2018-08-17T08:49:36.982Z,2420.00
2018-08-17T08:50:36.700Z,2552.00
2018-08-17T08:51:36.682Z,2504.00
2018-08-17T08:52:36.652Z,2292.00
2018-08-17T08:53:36.632Z,2072.00
2018-08-17T08:54:36.612Z,1952.00
2018-08-17T08:55:36.573Z,2024.00
2018-08-17T08:56:36.562Z,2204.00
2018-08-17T08:57:36.522Z,2244.00
2018-08-17T08:58:36.537Z,2268.00
2018-08-17T08:59:36.483Z,2428.00
2018-08-17T09:00:36.453Z,2216.00
2018-08-17T09:01:36.472Z,1800.00
2018-08-17T09:02:36.399Z,1544.00
2018-08-17T09:03:36.385Z,1300.00
2018-08-17T09:04:36.352Z,1128.00
2018-08-17T09:05:36.329Z,1096.00
2018-08-17T09:06:36.307Z,1152.00
2018-08-17T09:07:36.272Z,1180.00
2018-08-17T09:08:36.249Z,1288.00
2018-08-17T09:09:36.221Z,1328.00
2018-08-17T09:10:36.192Z,1364.00
2018-08-17T09:11:36.183Z,1528.00
2018-08-17T09:12:36.149Z,1668.00
2018-08-17T09:13:36.130Z,1752.00
2018-08-17T09:14:59.502Z,1812.00
2018-08-17T09:15:36.107Z,1964.00
2018-08-17T09:16:36.334Z,2164.00
2018-08-17T09:17:36.124Z,2388.00
2018-08-17T09:18:38.078Z,2604.00
2018-08-17T09:19:36.013Z,2792.00
2018-08-17T09:20:35.960Z,2868.00
2018-08-17T09:21:35.989Z,2888.00
2018-08-17T09:24:14.532Z,3076.00
2018-08-17T09:25:14.874Z,3208.00
2018-08-17T09:27:17.984Z,3776.00
2018-08-17T09:28:17.286Z,3992.00
2018-08-17T09:30:33.412Z,4368.00
2018-08-17T09:31:25.112Z,4492.00
2018-08-17T09:33:29.573Z,5184.00
2018-08-17T09:34:29.603Z,5428.00
2018-08-17T09:36:52.610Z,5596.00
2018-08-17T09:37:42.850Z,5016.00
2018-08-17T09:39:52.980Z,4216.00
2018-08-17T09:40:52.896Z,4264.00
2018-08-17T09:43:02.079Z,4220.00
2018-08-17T09:44:01.751Z,4112.00
2018-08-17T09:46:07.446Z,4104.00
2018-08-17T09:47:07.430Z,4064.00
2018-08-17T09:49:35.482Z,3168.00
2018-08-17T09:50:35.416Z,3092.00
2018-08-17T09:52:43.352Z,3688.00
2018-08-17T09:53:43.298Z,4236.00
2018-08-17T09:55:59.382Z,5908.00
2018-08-17T09:56:59.326Z,6728.00
2018-08-17T09:59:04.753Z,10560.00
2018-08-17T10:00:03.714Z,11576.00
2018-08-17T10:02:06.539Z,11716.00
2018-08-17T10:03:06.535Z,12784.00
2018-08-17T10:05:22.462Z,13444.00
2018-08-17T10:06:22.447Z,12180.00
2018-08-17T10:08:25.200Z,11576.00
2018-08-17T10:09:25.133Z,11760.00
2018-08-17T10:11:34.434Z,12704.00
2018-08-17T10:14:12.148Z,12364.00
2018-08-17T10:15:12.039Z,12368.00
2018-08-17T10:17:18.059Z,10684.00
2018-08-17T10:18:18.025Z,9780.00
2018-08-17T10:19:17.877Z,9080.00
2018-08-17T10:20:17.976Z,8332.00
2018-08-17T10:21:17.961Z,7588.00
2018-08-17T10:22:17.703Z,7248.00
2018-08-17T10:23:17.696Z,7180.00
2018-08-17T10:24:17.683Z,7236.00
2018-08-17T10:25:17.646Z,7424.00
2018-08-17T10:26:17.616Z,8032.00
2018-08-17T10:27:17.589Z,8852.00
2018-08-17T10:28:17.583Z,9572.00
2018-08-17T10:29:17.542Z,9980.00
2018-08-17T10:30:17.524Z,10296.00
2018-08-17T10:31:17.518Z,10432.00
2018-08-17T10:32:17.483Z,10224.00
2018-08-17T10:33:17.450Z,10396.00
2018-08-17T10:34:17.436Z,9876.00
2018-08-17T10:35:17.494Z,9236.00
2018-08-17T10:36:17.377Z,8524.00
2018-08-17T10:37:17.355Z,7560.00
2018-08-17T10:38:17.366Z,6900.00
2018-08-17T10:39:17.309Z,6512.00
2018-08-17T10:40:17.293Z,6096.00
2018-08-17T10:41:17.271Z,5772.00
2018-08-17T10:42:17.249Z,5740.00
2018-08-17T10:43:17.224Z,5536.00
2018-08-17T10:44:17.191Z,5160.00
2018-08-17T10:45:17.173Z,4520.00
2018-08-17T10:46:17.154Z,3804.00
2018-08-17T10:47:17.124Z,3404.00
2018-08-17T10:48:17.106Z,3092.00
2018-08-17T10:49:17.162Z,2784.00
2018-08-17T10:50:17.061Z,2564.00
2018-08-17T10:51:17.032Z,2508.00
2018-08-17T10:52:17.029Z,2540.00
2018-08-17T10:53:16.990Z,2468.00
2018-08-17T10:54:16.970Z,2224.00
2018-08-17T10:55:16.965Z,2064.00
2018-08-17T10:56:16.937Z,1940.00
2018-08-17T10:57:16.947Z,1660.00
2018-08-17T10:58:16.865Z,1568.00
2018-08-17T10:59:16.846Z,1644.00
2018-08-17T11:00:16.828Z,1648.00
2018-08-17T11:01:16.788Z,1608.00
2018-08-17T11:02:16.773Z,1628.00
2018-08-17T11:03:16.743Z,1596.00
2018-08-17T11:04:16.765Z,1616.00
2018-08-17T11:05:16.692Z,1716.00
2018-08-17T11:06:16.693Z,1808.00
2018-08-17T11:07:16.667Z,1940.00
2018-08-17T11:08:16.610Z,2072.00
2018-08-17T11:09:16.593Z,2140.00
2018-08-17T11:10:16.611Z,2332.00
2018-08-17T11:11:16.536Z,2444.00
2018-08-17T11:12:16.520Z,2492.00
2018-08-17T11:13:16.534Z,2680.00
2018-08-17T11:14:16.536Z,2772.00
2018-08-17T11:15:16.447Z,2772.00
2018-08-17T11:16:16.418Z,2728.00
2018-08-17T11:17:16.402Z,2880.00
2018-08-17T11:18:16.363Z,3064.00
2018-08-17T11:19:16.351Z,3292.00
2018-08-17T11:20:16.364Z,3588.00
2018-08-17T11:21:16.362Z,3892.00
2018-08-17T11:22:16.267Z,4128.00
2018-08-17T11:23:16.257Z,4364.00
2018-08-17T11:24:16.216Z,4328.00
2018-08-17T11:25:31.173Z,4296.00
2018-08-17T11:27:21.133Z,4496.00
2018-08-17T11:28:19.224Z,4840.00
2018-08-17T11:30:52.205Z,5036.00
2018-08-17T11:31:31.918Z,5484.00
2018-08-17T11:32:31.899Z,6088.00
2018-08-17T11:33:31.817Z,6204.00
2018-08-17T11:34:31.827Z,6224.00
2018-08-17T11:35:49.555Z,6216.00
2018-08-17T11:37:36.178Z,6016.00
2018-08-17T11:38:36.120Z,6168.00
2018-08-17T11:40:36.479Z,6588.00
2018-08-17T11:41:36.557Z,6656.00
2018-08-17T11:43:39.581Z,6844.00
2018-08-17T11:44:39.259Z,7424.00
2018-08-17T11:46:42.191Z,7364.00
2018-08-17T11:47:42.117Z,7004.00
2018-08-17T11:49:46.446Z,6448.00
2018-08-17T11:51:08.634Z,6084.00
2018-08-17T11:52:52.318Z,5528.00
2018-08-17T11:53:52.387Z,5552.00
2018-08-17T11:55:57.576Z,5468.00
2018-08-17T11:56:57.592Z,5900.00
2018-08-17T11:59:02.763Z,7276.00
2018-08-17T12:00:02.015Z,7380.00
2018-08-17T12:02:05.538Z,8364.00
2018-08-17T12:03:06.444Z,8816.00
2018-08-17T12:05:03.191Z,9464.00
2018-08-17T12:06:03.159Z,10204.00
2018-08-17T12:08:01.261Z,11204.00
2018-08-17T12:09:01.008Z,11488.00
2018-08-17T12:10:58.314Z,12120.00
2018-08-17T12:11:57.972Z,13756.00
2018-08-17T12:13:54.169Z,15144.00
2018-08-17T12:14:54.032Z,15516.00
2018-08-17T12:16:59.137Z,16096.00
2018-08-17T12:17:59.050Z,17184.00
2018-08-17T12:18:59.164Z,16288.00
2018-08-17T12:19:59.296Z,14596.00
2018-08-17T12:20:58.866Z,13840.00
2018-08-17T12:21:58.926Z,13856.00
2018-08-17T12:22:59.130Z,13472.00
2018-08-17T12:23:58.750Z,14540.00
2018-08-17T12:24:58.771Z,13420.00
2018-08-17T12:25:58.718Z,12452.00
2018-08-17T12:26:58.757Z,11500.00
2018-08-17T12:27:58.662Z,11924.00
2018-08-17T12:28:58.760Z,13460.00
2018-08-17T12:29:58.627Z,12856.00
2018-08-17T12:30:58.698Z,12164.00
2018-08-17T12:31:58.690Z,11844.00
2018-08-17T12:32:58.564Z,14368.00
2018-08-17T12:33:58.555Z,14424.00
2018-08-17T12:34:58.531Z,15324.00
2018-08-17T12:35:58.577Z,15412.00
2018-08-17T12:36:58.545Z,15628.00
2018-08-17T12:37:58.490Z,15688.00
2018-08-17T12:38:58.462Z,14468.00
2018-08-17T12:39:58.487Z,17376.00
2018-08-17T12:40:58.439Z,17792.00
2018-08-17T12:41:58.400Z,17280.00
2018-08-17T12:42:58.380Z,12988.00
2018-08-17T12:43:58.366Z,16928.00
2018-08-17T12:44:58.351Z,16992.00
2018-08-17T12:45:58.332Z,15624.00
2018-08-17T12:46:58.314Z,14296.00
2018-08-17T12:47:58.300Z,17152.00
2018-08-17T12:48:58.284Z,17248.00
2018-08-17T12:49:58.261Z,16128.00
2018-08-17T12:50:58.243Z,14276.00
2018-08-17T12:51:58.251Z,12028.00
2018-08-17T12:52:58.216Z,10020.00
2018-08-17T12:53:58.258Z,11448.00
2018-08-17T12:54:58.183Z,11620.00
2018-08-17T12:55:58.166Z,11944.00
2018-08-17T12:56:58.139Z,13740.00
2018-08-17T12:57:58.161Z,12384.00
2018-08-17T12:58:58.156Z,12568.00
2018-08-17T12:59:58.097Z,12748.00
2018-08-17T13:00:58.669Z,13048.00
2018-08-17T13:01:58.052Z,13668.00
2018-08-17T13:02:58.074Z,14600.00
2018-08-17T13:03:58.022Z,14112.00
2018-08-17T13:04:58.002Z,12704.00
2018-08-17T13:05:58.003Z,12148.00
2018-08-17T13:06:57.968Z,12024.00
2018-08-17T13:07:57.951Z,12128.00
2018-08-17T13:08:57.925Z,13740.00
2018-08-17T13:09:58.014Z,14176.00
2018-08-17T13:10:57.883Z,15780.00
2018-08-17T13:11:57.874Z,15400.00
2018-08-17T13:12:57.855Z,15812.00
2018-08-17T13:13:57.837Z,9148.00
2018-08-17T13:14:57.849Z,8188.00
2018-08-17T13:15:57.808Z,7764.00
2018-08-17T13:16:57.837Z,7604.00
2018-08-17T13:17:57.766Z,10536.00
2018-08-17T13:18:57.753Z,8576.00
2018-08-17T13:19:57.768Z,8608.00
2018-08-17T13:20:57.806Z,7496.00
2018-08-17T13:21:57.688Z,12836.00
2018-08-17T13:22:57.726Z,13844.00
2018-08-17T13:23:57.675Z,14140.00
2018-08-17T13:24:57.650Z,14412.00
2018-08-17T13:25:57.629Z,14544.00
2018-08-17T13:26:57.612Z,14544.00
2018-08-17T13:27:57.598Z,14528.00
2018-08-17T13:28:57.610Z,14488.00
2018-08-17T13:29:57.670Z,14596.00
2018-08-17T13:30:57.568Z,15004.00
2018-08-17T13:31:57.525Z,15476.00
2018-08-17T13:32:57.507Z,15632.00
2018-08-17T13:33:57.504Z,16000.00
2018-08-17T13:34:57.484Z,16576.00
2018-08-17T13:35:57.491Z,16672.00
2018-08-17T13:36:57.455Z,16188.00
2018-08-17T13:37:57.443Z,13752.00
2018-08-17T13:39:10.882Z,16060.00
2018-08-17T13:41:09.166Z,17024.00
2018-08-17T13:42:08.987Z,17056.00
2018-08-17T13:44:27.862Z,13752.00
2018-08-17T13:45:27.759Z,10536.00
2018-08-17T13:47:35.814Z,19104.00
2018-08-17T13:48:53.663Z,11372.00
2018-08-17T13:50:39.212Z,17376.00
2018-08-17T13:51:39.098Z,17440.00
2018-08-17T13:53:39.835Z,9888.00
2018-08-17T13:54:39.288Z,10688.00
2018-08-17T13:56:42.719Z,10980.00
2018-08-17T13:57:42.956Z,11236.00
2018-08-17T13:59:48.608Z,11476.00
2018-08-17T14:00:48.602Z,19744.00
2018-08-17T14:02:49.088Z,21504.00
2018-08-17T14:03:48.941Z,15124.00
2018-08-17T14:05:52.828Z,12008.00
2018-08-17T14:06:52.359Z,11328.00
2018-08-17T14:08:56.050Z,10220.00
2018-08-17T14:09:55.727Z,9536.00
2018-08-17T14:11:56.177Z,8816.00
2018-08-17T14:12:56.169Z,9400.00
2018-08-17T14:15:03.997Z,9408.00
2018-08-17T14:16:03.887Z,9904.00
2018-08-17T14:18:06.901Z,9108.00
2018-08-17T14:19:06.847Z,8196.00
2018-08-17T14:20:06.734Z,8460.00
2018-08-17T14:21:06.777Z,8508.00
2018-08-17T14:22:06.600Z,8368.00
2018-08-17T14:23:06.568Z,9196.00
2018-08-17T14:24:06.563Z,19264.00
2018-08-17T14:25:06.545Z,36320.00
2018-08-17T14:26:06.513Z,40096.00
2018-08-17T14:27:06.500Z,44768.00
2018-08-17T14:28:06.496Z,47008.00
2018-08-17T14:29:06.470Z,50976.00
2018-08-17T14:30:06.444Z,50240.00
2018-08-17T14:31:06.445Z,57376.00
2018-08-17T14:32:06.419Z,61888.00
2018-08-17T14:33:06.398Z,39808.00
2018-08-17T14:34:06.380Z,9364.00
2018-08-17T14:35:06.381Z,9348.00
2018-08-17T14:36:06.352Z,10028.00
2018-08-17T14:37:06.332Z,12896.00
2018-08-17T14:38:06.325Z,62720.00
2018-08-17T14:39:06.308Z,55232.00
2018-08-17T14:40:06.287Z,50208.00
2018-08-17T14:41:06.306Z,46304.00
2018-08-17T14:42:06.278Z,42240.00
2018-08-17T14:43:06.243Z,42208.00
2018-08-17T14:44:06.236Z,40128.00
2018-08-17T14:45:06.224Z,33184.00
2018-08-17T14:46:06.260Z,34336.00
2018-08-17T14:47:06.206Z,33408.00
2018-08-17T14:48:06.171Z,33920.00
2018-08-17T14:49:06.184Z,32736.00
2018-08-17T14:50:06.161Z,32224.00
2018-08-17T14:51:06.268Z,31904.00
2018-08-17T14:52:06.120Z,33728.00
2018-08-17T14:53:06.114Z,33056.00
2018-08-17T14:54:06.106Z,32448.00
2018-08-17T14:55:06.084Z,32032.00
2018-08-17T14:56:06.078Z,32448.00
2018-08-17T14:57:06.128Z,32288.00
2018-08-17T14:58:06.050Z,32096.00
2018-08-17T14:59:06.043Z,31584.00
2018-08-17T15:00:06.042Z,32544.00
2018-08-17T15:01:06.087Z,34144.00
2018-08-17T15:02:06.014Z,35232.00
2018-08-17T15:03:05.999Z,34912.00
2018-08-17T15:04:05.995Z,34432.00
2018-08-17T15:05:05.991Z,34688.00
2018-08-17T15:06:06.002Z,35200.00
2018-08-17T15:07:05.961Z,36192.00
2018-08-17T15:08:05.955Z,36896.00
2018-08-17T15:09:05.959Z,36032.00
2018-08-17T15:10:05.925Z,36992.00
2018-08-17T15:11:05.925Z,37568.00
2018-08-17T15:12:05.910Z,37120.00
2018-08-17T15:13:05.955Z,37760.00
2018-08-17T15:14:05.896Z,38400.00
2018-08-17T15:15:05.875Z,39104.00
2018-08-17T15:16:05.880Z,40000.00
2018-08-17T15:17:05.869Z,40672.00
2018-08-17T15:18:05.849Z,40768.00
2018-08-17T15:19:05.864Z,40960.00
2018-08-17T15:20:05.851Z,41152.00
2018-08-17T15:21:05.828Z,41728.00
2018-08-17T15:22:05.819Z,42336.00
2018-08-17T15:23:05.815Z,43744.00
2018-08-17T15:24:05.802Z,44448.00
2018-08-17T15:25:05.798Z,44224.00
2018-08-17T15:26:05.793Z,45120.00
2018-08-17T15:27:05.778Z,46368.00
2018-08-17T15:28:05.766Z,48160.00
2018-08-17T15:29:05.764Z,48736.00
2018-08-17T15:30:05.807Z,50048.00
2018-08-17T15:31:05.753Z,50304.00
2018-08-17T15:32:05.776Z,50272.00
2018-08-17T15:33:05.766Z,50560.00
2018-08-17T15:34:05.726Z,51744.00
2018-08-17T15:35:05.713Z,51968.00
2018-08-17T15:36:05.714Z,10380.00
2018-08-17T15:37:05.699Z,12912.00
2018-08-17T15:38:05.692Z,12204.00
2018-08-17T15:39:05.675Z,9848.00
2018-08-17T15:40:05.696Z,11920.00
2018-08-17T15:41:05.664Z,10756.00
2018-08-17T15:42:05.661Z,11360.00
2018-08-17T15:43:05.658Z,59328.00
2018-08-17T15:44:05.644Z,61728.00
2018-08-17T15:45:05.612Z,64352.00
2018-08-17T15:46:05.625Z,63392.00
2018-08-17T15:47:22.900Z,56672.00
2018-08-17T15:49:08.964Z,12432.00
2018-08-17T15:50:08.516Z,43520.00
2018-08-17T15:52:16.759Z,65792.00
2018-08-17T15:53:16.446Z,66816.00
2018-08-17T15:55:19.503Z,70368.00
2018-08-17T15:56:19.405Z,73088.00
2018-08-17T15:58:22.358Z,76064.00
2018-08-17T15:59:23.800Z,77664.00
2018-08-17T16:01:30.277Z,78432.00
2018-08-17T16:02:30.155Z,78656.00
2018-08-17T16:04:37.953Z,77248.00
2018-08-17T16:05:38.056Z,77696.00
2018-08-17T16:07:44.255Z,54656.00
2018-08-17T16:08:43.887Z,23392.00
2018-08-17T16:10:54.248Z,11112.00
2018-08-17T16:11:54.134Z,9892.00
2018-08-17T16:14:10.073Z,12304.00
2018-08-17T16:15:09.962Z,10848.00
2018-08-17T16:17:18.981Z,12564.00
2018-08-17T16:18:19.007Z,10488.00
2018-08-17T16:20:29.317Z,11700.00
2018-08-17T16:21:29.227Z,8896.00
2018-08-17T16:23:36.383Z,8712.00
2018-08-17T16:24:36.373Z,8636.00
2018-08-17T16:25:36.346Z,8304.00
2018-08-17T16:26:36.261Z,8304.00
2018-08-17T16:27:36.251Z,8428.00
2018-08-17T16:28:36.209Z,8616.00
2018-08-17T16:29:36.232Z,8692.00
2018-08-17T16:30:36.236Z,8780.00
2018-08-17T16:31:36.187Z,8920.00
2018-08-17T16:32:36.127Z,9144.00
2018-08-17T16:33:36.129Z,9348.00
2018-08-17T16:34:58.862Z,9188.00
2018-08-17T16:35:36.163Z,9068.00
2018-08-17T16:36:36.268Z,9000.00
2018-08-17T16:37:36.293Z,8936.00
2018-08-17T16:38:36.154Z,9072.00
2018-08-17T16:39:36.320Z,9172.00
2018-08-17T16:40:36.053Z,9180.00
2018-08-17T16:41:35.985Z,9572.00
2018-08-17T16:42:35.977Z,12164.00
2018-08-17T16:43:35.947Z,15340.00
2018-08-17T16:44:36.056Z,21120.00
2018-08-17T16:45:35.913Z,18528.00
2018-08-17T16:46:35.914Z,9348.00
2018-08-17T16:47:35.867Z,8848.00
2018-08-17T16:48:35.856Z,7940.00
2018-08-17T16:49:35.841Z,7768.00
2018-08-17T16:50:35.822Z,7748.00
2018-08-17T16:51:35.880Z,7640.00
2018-08-17T16:52:35.785Z,7460.00
2018-08-17T16:53:35.755Z,7280.00
2018-08-17T16:54:35.783Z,7232.00
2018-08-17T16:55:35.723Z,7228.00
2018-08-17T16:56:35.700Z,7168.00
2018-08-17T16:57:35.686Z,7036.00
2018-08-17T16:58:35.672Z,7144.00
2018-08-17T16:59:35.645Z,7328.00
2018-08-17T17:00:35.786Z,7172.00
2018-08-17T17:01:35.612Z,7012.00
2018-08-17T17:02:35.603Z,7080.00
2018-08-17T17:03:35.571Z,7044.00
2018-08-17T17:04:35.611Z,6948.00
2018-08-17T17:05:35.536Z,6900.00
2018-08-17T17:06:35.606Z,6804.00
2018-08-17T17:07:35.501Z,7024.00
2018-08-17T17:08:35.479Z,7400.00
2018-08-17T17:09:35.475Z,6896.00
2018-08-17T17:10:35.475Z,7072.00
2018-08-17T17:11:35.422Z,7568.00
2018-08-17T17:12:35.405Z,6728.00
2018-08-17T17:13:35.386Z,6488.00
2018-08-17T17:14:35.373Z,6252.00
2018-08-17T17:15:35.353Z,6052.00
2018-08-17T17:16:35.322Z,6000.00
2018-08-17T17:17:35.306Z,5956.00
2018-08-17T17:18:35.275Z,5920.00
2018-08-17T17:19:35.265Z,5876.00
2018-08-17T17:20:35.248Z,5828.00
2018-08-17T17:21:35.225Z,5772.00
2018-08-17T17:22:35.199Z,5716.00
2018-08-17T17:23:35.186Z,5660.00
2018-08-17T17:24:35.185Z,5636.00
2018-08-17T17:25:35.142Z,5564.00
2018-08-17T17:26:35.133Z,5500.00
2018-08-17T17:27:35.111Z,5864.00
2018-08-17T17:28:35.083Z,5796.00
2018-08-17T17:29:35.052Z,6160.00
2018-08-17T17:30:35.041Z,6196.00
2018-08-17T17:31:35.022Z,5388.00
2018-08-17T17:32:34.999Z,5224.00
2018-08-17T17:33:34.977Z,5104.00
2018-08-17T17:34:35.002Z,5004.00
2018-08-17T17:35:35.061Z,4900.00
2018-08-17T17:36:34.914Z,4868.00
2018-08-17T17:37:34.889Z,4656.00
2018-08-17T17:38:34.871Z,4556.00
2018-08-17T17:39:34.852Z,4480.00
2018-08-17T17:40:34.849Z,4496.00
2018-08-17T17:41:34.826Z,4456.00
2018-08-17T17:42:34.823Z,4328.00
2018-08-17T17:43:34.773Z,4248.00
2018-08-17T17:44:34.773Z,4120.00
2018-08-17T17:45:34.731Z,4052.00
2018-08-17T17:46:34.719Z,4008.00
2018-08-17T17:47:34.692Z,3944.00
2018-08-17T17:48:34.673Z,3868.00
2018-08-17T17:49:34.644Z,3800.00
2018-08-17T17:50:34.620Z,3752.00
2018-08-17T17:51:34.606Z,3704.00
2018-08-17T17:52:34.589Z,3652.00
2018-08-17T17:53:34.619Z,3608.00
2018-08-17T17:54:34.548Z,3560.00
2018-08-17T17:55:34.518Z,3508.00
2018-08-17T17:56:34.517Z,3456.00
2018-08-17T17:57:34.470Z,3440.00
2018-08-17T17:58:34.467Z,3456.00
2018-08-17T17:59:34.558Z,3292.00
2018-08-17T18:00:34.415Z,3212.00
2018-08-17T18:01:34.387Z,3108.00
2018-08-17T18:02:34.359Z,3004.00
2018-08-17T18:03:34.346Z,2884.00
2018-08-17T18:04:34.326Z,2764.00
2018-08-17T18:05:34.304Z,2644.00
2018-08-17T18:06:34.286Z,2540.00
2018-08-17T18:07:34.275Z,2456.00
2018-08-17T18:08:34.234Z,2360.00
2018-08-17T18:09:34.219Z,2260.00
2018-08-17T18:10:34.189Z,2168.00
2018-08-17T18:11:34.167Z,2092.00
2018-08-17T18:12:34.158Z,2032.00
2018-08-17T18:13:34.169Z,1960.00
2018-08-17T18:14:34.103Z,1864.00
2018-08-17T18:15:34.085Z,1748.00
2018-08-17T18:16:34.068Z,1644.00
2018-08-17T18:17:59.971Z,1572.00
2018-08-17T18:19:39.050Z,1472.00
2018-08-17T18:20:38.520Z,1420.00
2018-08-17T18:22:41.489Z,1272.00
2018-08-17T18:23:41.564Z,1180.00
2018-08-17T18:25:50.081Z,1004.00
2018-08-17T18:26:50.038Z,924.00
2018-08-17T18:29:03.168Z,784.00
2018-08-17T18:30:02.812Z,724.00
2018-08-17T18:32:08.015Z,648.00
2018-08-17T18:33:07.984Z,620.00
2018-08-17T18:34:07.907Z,572.00
2018-08-17T18:35:07.916Z,532.00
2018-08-17T18:36:07.909Z,492.00
2018-08-17T18:37:07.781Z,448.00
2018-08-17T18:38:07.729Z,420.00
2018-08-17T18:39:07.720Z,396.00
2018-08-17T18:40:10.184Z,368.00
2018-08-17T18:41:07.665Z,344.00
2018-08-17T18:42:07.734Z,316.00
2018-08-17T18:43:07.621Z,296.00
2018-08-17T18:44:07.591Z,284.00
2018-08-17T18:45:07.574Z,268.00
2018-08-17T18:46:07.570Z,248.00
2018-08-17T18:47:07.532Z,232.00
2018-08-17T18:48:07.512Z,216.00
2018-08-17T18:49:07.487Z,200.00
2018-08-17T18:50:07.461Z,192.00
2018-08-17T18:51:07.491Z,184.00
2018-08-17T18:52:07.437Z,172.00
2018-08-17T18:53:07.402Z,160.00
2018-08-17T18:54:07.394Z,152.00
2018-08-17T18:55:07.350Z,136.00
2018-08-17T18:56:07.320Z,124.00
2018-08-17T18:57:07.300Z,112.00
2018-08-17T18:58:07.307Z,100.00
2018-08-17T18:59:07.324Z,88.00
2018-08-17T19:00:07.279Z,80.00
2018-08-17T19:01:07.259Z,72.00
2018-08-17T19:02:07.185Z,64.00
2018-08-17T19:03:07.164Z,56.00
2018-08-17T19:04:07.146Z,52.00
2018-08-17T19:05:07.128Z,44.00
2018-08-17T19:06:07.104Z,40.00
2018-08-17T19:07:07.068Z,32.00
2018-08-17T19:08:07.071Z,32.00
2018-08-17T19:09:07.030Z,24.00
2018-08-17T19:10:07.069Z,20.00
2018-08-17T19:11:06.981Z,20.00
2018-08-17T19:12:06.981Z,16.00
2018-08-17T19:13:06.944Z,16.00
2018-08-17T19:14:06.923Z,12.00
2018-08-17T19:15:06.888Z,8.00
2018-08-17T19:16:06.900Z,8.00
2018-08-17T19:17:06.847Z,8.00
2018-08-17T19:18:06.832Z,8.00
2018-08-17T19:19:06.793Z,8.00
2018-08-17T19:20:06.776Z,4.00
2018-08-17T19:21:06.755Z,4.00
2018-08-17T19:22:06.727Z,4.00
2018-08-17T19:23:06.703Z,0.00
2018-08-17T19:24:06.690Z,4.00
2018-08-17T19:25:06.701Z,4.00
2018-08-17T19:26:06.635Z,4.00
2018-08-17T19:27:06.615Z,0.00
2018-08-17T19:28:06.595Z,0.00
2018-08-17T19:29:06.569Z,0.00
2018-08-17T19:30:06.539Z,0.00
2018-08-17T19:31:06.557Z,0.00
2018-08-17T19:32:06.563Z,0.00
2018-08-17T19:33:06.473Z,0.00
2018-08-17T19:34:06.444Z,0.00
2018-08-17T19:35:06.514Z,0.00
2018-08-17T19:36:06.392Z,0.00
2018-08-17T19:37:06.371Z,0.00
2018-08-17T19:38:06.369Z,0.00
2018-08-17T19:39:06.320Z,0.00
2018-08-17T19:40:06.296Z,0.00
2018-08-17T19:41:06.290Z,0.00
2018-08-17T19:42:06.259Z,0.00
2018-08-17T19:43:06.225Z,0.00
2018-08-17T19:44:06.210Z,0.00
2018-08-17T19:45:06.179Z,0.00
2018-08-17T19:46:06.277Z,0.00
2018-08-17T19:47:06.126Z,0.00
2018-08-17T19:48:06.105Z,0.00
2018-08-17T19:49:06.112Z,0.00
2018-08-17T19:50:06.132Z,0.00
2018-08-17T19:51:06.081Z,0.00
2018-08-17T19:52:06.020Z,0.00
2018-08-17T19:53:05.986Z,0.00
2018-08-17T19:54:05.963Z,0.00
2018-08-17T19:55:05.937Z,0.00
2018-08-17T19:56:07.729Z,0.00
2018-08-17T19:57:05.898Z,0.00
2018-08-17T19:58:05.869Z,0.00
2018-08-17T19:59:05.839Z,0.00
2018-08-17T20:00:05.824Z,0.00
2018-08-17T20:01:05.849Z,0.00
2018-08-17T20:02:05.768Z,0.00
2018-08-17T20:03:05.744Z,0.00
2018-08-17T20:04:05.730Z,0.00
2018-08-17T20:05:05.697Z,0.00
2018-08-17T20:06:05.669Z,0.00
2018-08-17T20:07:05.715Z,0.00
2018-08-17T20:08:05.620Z,0.00
2018-08-17T20:09:05.608Z,0.00
2018-08-17T20:10:05.600Z,0.00
2018-08-17T20:11:05.544Z,0.00
2018-08-17T20:12:05.521Z,0.00
2018-08-17T20:13:05.505Z,0.00
2018-08-17T20:14:05.474Z,0.00
2018-08-17T20:15:05.478Z,0.00
2018-08-17T20:16:05.435Z,0.00
2018-08-17T20:17:05.404Z,0.00
2018-08-17T20:18:05.374Z,0.00
2018-08-17T20:19:05.349Z,0.00
2018-08-17T20:20:05.319Z,0.00
2018-08-17T20:21:05.303Z,0.00
2018-08-17T20:22:05.279Z,0.00
2018-08-17T20:23:05.255Z,0.00
2018-08-17T20:24:05.274Z,0.00
2018-08-17T20:25:05.219Z,0.00
2018-08-17T20:26:05.252Z,0.00
2018-08-17T20:27:05.198Z,0.00
2018-08-17T20:28:05.130Z,0.00
2018-08-17T20:29:05.108Z,0.00
2018-08-17T20:30:05.127Z,0.00
2018-08-17T20:31:05.051Z,0.00
2018-08-17T20:32:05.022Z,0.00
2018-08-17T20:33:05.006Z,0.00
2018-08-17T20:34:04.973Z,0.00
2018-08-17T20:35:04.951Z,0.00
2018-08-17T20:36:04.940Z,0.00
2018-08-17T20:37:04.905Z,0.00
2018-08-17T20:38:04.877Z,0.00
2018-08-17T20:39:04.863Z,0.00
2018-08-17T20:40:04.836Z,0.00
2018-08-17T20:41:04.822Z,0.00
2018-08-17T20:42:04.782Z,0.00
2018-08-17T20:43:04.829Z,0.00
2018-08-17T20:44:04.735Z,0.00
2018-08-17T20:45:04.703Z,0.00
2018-08-17T20:46:04.682Z,0.00
2018-08-17T20:47:04.748Z,0.00
2018-08-17T20:48:04.639Z,0.00
2018-08-17T20:49:04.601Z,0.00
2018-08-17T20:50:04.581Z,0.00
2018-08-17T20:51:04.552Z,0.00
2018-08-17T20:52:04.526Z,0.00
2018-08-17T20:53:04.522Z,0.00
2018-08-17T20:54:04.475Z,0.00
2018-08-17T20:55:04.507Z,0.00
2018-08-17T20:56:04.435Z,0.00
2018-08-17T20:57:04.408Z,0.00
2018-08-17T20:58:04.373Z,0.00
2018-08-17T20:59:04.353Z,0.00
2018-08-17T21:00:04.324Z,0.00
2018-08-17T21:01:04.303Z,0.00
2018-08-17T21:02:04.302Z,0.00
2018-08-17T21:03:04.249Z,0.00
2018-08-17T21:04:04.214Z,0.00
2018-08-17T21:05:04.198Z,0.00
2018-08-17T21:06:04.175Z,0.00
2018-08-17T21:07:04.166Z,0.00
2018-08-17T21:08:04.128Z,0.00
2018-08-17T21:09:04.103Z,0.00